sensor_id;sensor_type;location;lat;lon;timestamp;P1;durP1;ratioP1;P2;durP2;ratioP2
68800;SDS011;55784;50.734;7.086;2023-02-28T00:01:13;7.00;;;1.98;;
68800;SDS011;55784;50.734;7.086;2023-02-28T00:03:40;8.50;;;1.92;;
68800;SDS011;55784;50.734;7.086;2023-02-28T00:06:06;7.87;;;2.10;;
68800;SDS011;55784;50.734;7.086;2023-02-28T00:08:37;9.55;;;1.95;;
68800;SDS011;55784;50.734;7.086;2023-02-28T00:11:03;6.65;;;1.70;;
68800;SDS011;55784;50.734;7.086;2023-02-28T00:13:30;6.80;;;1.90;;
68800;SDS011;55784;50.734;7.086;2023-02-28T00:16:00;7.60;;;2.00;;
68800;SDS011;55784;50.734;7.086;2023-02-28T00:18:33;8.35;;;2.03;;
68800;SDS011;55784;50.734;7.086;2023-02-28T00:20:58;7.67;;;2.00;;
68800;SDS011;55784;50.734;7.086;2023-02-28T00:23:24;7.23;;;1.90;;
68800;SDS011;55784;50.734;7.086;2023-02-28T00:25:50;6.50;;;1.90;;
68800;SDS011;55784;50.734;7.086;2023-02-28T00:28:15;6.53;;;1.70;;
68800;SDS011;55784;50.734;7.086;2023-02-28T00:30:41;7.83;;;2.10;;
68800;SDS011;55784;50.734;7.086;2023-02-28T00:33:06;6.83;;;2.20;;
68800;SDS011;55784;50.734;7.086;2023-02-28T00:35:31;7.20;;;1.77;;
68800;SDS011;55784;50.734;7.086;2023-02-28T00:37:57;9.47;;;2.07;;
68800;SDS011;55784;50.734;7.086;2023-02-28T00:40:22;7.03;;;1.93;;
68800;SDS011;55784;50.734;7.086;2023-02-28T00:42:53;6.83;;;2.00;;
68800;SDS011;55784;50.734;7.086;2023-02-28T00:45:18;7.18;;;2.00;;
68800;SDS011;55784;50.734;7.086;2023-02-28T00:47:44;9.10;;;2.00;;
68800;SDS011;55784;50.734;7.086;2023-02-28T00:50:11;5.80;;;1.70;;
68800;SDS011;55784;50.734;7.086;2023-02-28T00:52:39;7.67;;;1.93;;
68800;SDS011;55784;50.734;7.086;2023-02-28T00:55:04;8.20;;;2.10;;
68800;SDS011;55784;50.734;7.086;2023-02-28T00:57:30;7.18;;;2.00;;
68800;SDS011;55784;50.734;7.086;2023-02-28T00:59:55;6.43;;;1.80;;
68800;SDS011;55784;50.734;7.086;2023-02-28T01:02:21;7.33;;;1.80;;
68800;SDS011;55784;50.734;7.086;2023-02-28T01:04:47;7.65;;;2.17;;
68800;SDS011;55784;50.734;7.086;2023-02-28T01:07:12;7.10;;;2.00;;
68800;SDS011;55784;50.734;7.086;2023-02-28T01:09:39;7.38;;;1.90;;
68800;SDS011;55784;50.734;7.086;2023-02-28T01:12:05;7.20;;;2.00;;
68800;SDS011;55784;50.734;7.086;2023-02-28T01:14:32;7.30;;;2.28;;
68800;SDS011;55784;50.734;7.086;2023-02-28T01:16:57;7.37;;;2.20;;
68800;SDS011;55784;50.734;7.086;2023-02-28T01:19:22;8.63;;;2.00;;
68800;SDS011;55784;50.734;7.086;2023-02-28T01:21:48;6.73;;;1.80;;
68800;SDS011;55784;50.734;7.086;2023-02-28T01:24:13;7.37;;;1.90;;
68800;SDS011;55784;50.734;7.086;2023-02-28T01:26:38;6.30;;;1.70;;
68800;SDS011;55784;50.734;7.086;2023-02-28T01:29:03;6.77;;;1.87;;
68800;SDS011;55784;50.734;7.086;2023-02-28T01:31:29;6.90;;;1.70;;
68800;SDS011;55784;50.734;7.086;2023-02-28T01:33:54;9.07;;;1.88;;
68800;SDS011;55784;50.734;7.086;2023-02-28T01:36:21;7.10;;;2.13;;
68800;SDS011;55784;50.734;7.086;2023-02-28T01:38:47;7.30;;;2.00;;
68800;SDS011;55784;50.734;7.086;2023-02-28T01:41:21;6.78;;;1.90;;
68800;SDS011;55784;50.734;7.086;2023-02-28T01:46:13;6.97;;;2.10;;
68800;SDS011;55784;50.734;7.086;2023-02-28T01:48:40;8.43;;;2.20;;
68800;SDS011;55784;50.734;7.086;2023-02-28T01:51:12;7.72;;;2.00;;
68800;SDS011;55784;50.734;7.086;2023-02-28T01:53:44;6.87;;;1.83;;
68800;SDS011;55784;50.734;7.086;2023-02-28T01:56:12;6.20;;;1.77;;
68800;SDS011;55784;50.734;7.086;2023-02-28T01:58:45;5.88;;;1.55;;
68800;SDS011;55784;50.734;7.086;2023-02-28T02:01:12;7.18;;;1.70;;
68800;SDS011;55784;50.734;7.086;2023-02-28T02:04:04;7.47;;;1.70;;
68800;SDS011;55784;50.734;7.086;2023-02-28T02:06:48;6.87;;;1.70;;
68800;SDS011;55784;50.734;7.086;2023-02-28T02:09:14;8.63;;;1.98;;
68800;SDS011;55784;50.734;7.086;2023-02-28T02:11:40;5.80;;;1.70;;
68800;SDS011;55784;50.734;7.086;2023-02-28T02:17:11;5.95;;;1.60;;
68800;SDS011;55784;50.734;7.086;2023-02-28T02:36:28;6.50;;;1.83;;
68800;SDS011;55784;50.734;7.086;2023-02-28T02:44:15;6.80;;;1.90;;
68800;SDS011;55784;50.734;7.086;2023-02-28T02:46:47;6.07;;;1.70;;
68800;SDS011;55784;50.734;7.086;2023-02-28T02:49:22;7.50;;;1.87;;
68800;SDS011;55784;50.734;7.086;2023-02-28T02:51:51;9.88;;;2.67;;
68800;SDS011;55784;50.734;7.086;2023-02-28T02:54:19;7.00;;;2.10;;
68800;SDS011;55784;50.734;7.086;2023-02-28T02:56:48;7.80;;;2.15;;
68800;SDS011;55784;50.734;7.086;2023-02-28T02:59:14;8.50;;;2.50;;
68800;SDS011;55784;50.734;7.086;2023-02-28T03:01:46;7.50;;;2.40;;
68800;SDS011;55784;50.734;7.086;2023-02-28T03:04:19;8.30;;;2.40;;
68800;SDS011;55784;50.734;7.086;2023-02-28T03:06:46;8.37;;;2.30;;
68800;SDS011;55784;50.734;7.086;2023-02-28T03:09:11;9.10;;;2.83;;
68800;SDS011;55784;50.734;7.086;2023-02-28T03:11:37;8.53;;;2.33;;
68800;SDS011;55784;50.734;7.086;2023-02-28T03:21:58;9.30;;;2.80;;
68800;SDS011;55784;50.734;7.086;2023-02-28T03:27:11;8.65;;;2.60;;
68800;SDS011;55784;50.734;7.086;2023-02-28T03:29:47;10.05;;;2.80;;
68800;SDS011;55784;50.734;7.086;2023-02-28T03:32:24;9.07;;;2.80;;
68800;SDS011;55784;50.734;7.086;2023-02-28T03:35:02;10.03;;;3.17;;
68800;SDS011;55784;50.734;7.086;2023-02-28T03:37:47;8.90;;;2.58;;
68800;SDS011;55784;50.734;7.086;2023-02-28T03:40:15;7.13;;;2.45;;
68800;SDS011;55784;50.734;7.086;2023-02-28T03:42:45;9.15;;;2.63;;
68800;SDS011;55784;50.734;7.086;2023-02-28T03:45:22;8.73;;;2.75;;
68800;SDS011;55784;50.734;7.086;2023-02-28T03:47:53;9.83;;;2.60;;
68800;SDS011;55784;50.734;7.086;2023-02-28T03:50:27;7.82;;;2.40;;
68800;SDS011;55784;50.734;7.086;2023-02-28T03:53:01;8.13;;;2.28;;
68800;SDS011;55784;50.734;7.086;2023-02-28T03:55:37;8.23;;;2.08;;
68800;SDS011;55784;50.734;7.086;2023-02-28T04:00:51;8.13;;;2.30;;
68800;SDS011;55784;50.734;7.086;2023-02-28T04:03:21;6.80;;;2.03;;
68800;SDS011;55784;50.734;7.086;2023-02-28T04:05:54;8.35;;;2.10;;
68800;SDS011;55784;50.734;7.086;2023-02-28T04:08:22;9.98;;;2.67;;
68800;SDS011;55784;50.734;7.086;2023-02-28T04:10:50;7.37;;;1.93;;
68800;SDS011;55784;50.734;7.086;2023-02-28T04:13:21;7.78;;;2.17;;
68800;SDS011;55784;50.734;7.086;2023-02-28T04:15:46;9.50;;;2.17;;
68800;SDS011;55784;50.734;7.086;2023-02-28T04:18:11;8.67;;;2.40;;
68800;SDS011;55784;50.734;7.086;2023-02-28T04:20:36;7.83;;;1.97;;
68800;SDS011;55784;50.734;7.086;2023-02-28T04:23:02;6.83;;;2.00;;
68800;SDS011;55784;50.734;7.086;2023-02-28T04:25:27;8.97;;;2.30;;
68800;SDS011;55784;50.734;7.086;2023-02-28T04:27:52;7.47;;;2.30;;
68800;SDS011;55784;50.734;7.086;2023-02-28T04:30:17;8.60;;;1.97;;
68800;SDS011;55784;50.734;7.086;2023-02-28T04:32:43;8.47;;;1.90;;
68800;SDS011;55784;50.734;7.086;2023-02-28T04:35:08;7.27;;;2.17;;
68800;SDS011;55784;50.734;7.086;2023-02-28T04:37:33;8.00;;;2.17;;
68800;SDS011;55784;50.734;7.086;2023-02-28T04:40:01;7.80;;;2.10;;
68800;SDS011;55784;50.734;7.086;2023-02-28T04:42:27;8.07;;;2.30;;
68800;SDS011;55784;50.734;7.086;2023-02-28T04:45:00;6.50;;;2.10;;
68800;SDS011;55784;50.734;7.086;2023-02-28T04:47:25;9.00;;;2.50;;
68800;SDS011;55784;50.734;7.086;2023-02-28T04:49:50;8.63;;;2.10;;
68800;SDS011;55784;50.734;7.086;2023-02-28T04:52:15;7.80;;;2.07;;
68800;SDS011;55784;50.734;7.086;2023-02-28T04:54:41;8.67;;;2.70;;
68800;SDS011;55784;50.734;7.086;2023-02-28T04:57:06;7.73;;;2.17;;
68800;SDS011;55784;50.734;7.086;2023-02-28T04:59:31;7.00;;;2.20;;
68800;SDS011;55784;50.734;7.086;2023-02-28T05:01:57;7.38;;;2.15;;
68800;SDS011;55784;50.734;7.086;2023-02-28T05:04:23;8.13;;;2.20;;
68800;SDS011;55784;50.734;7.086;2023-02-28T05:06:48;7.60;;;2.00;;
68800;SDS011;55784;50.734;7.086;2023-02-28T05:09:13;7.80;;;2.17;;
68800;SDS011;55784;50.734;7.086;2023-02-28T05:11:38;9.67;;;2.17;;
68800;SDS011;55784;50.734;7.086;2023-02-28T05:14:05;7.15;;;2.30;;
68800;SDS011;55784;50.734;7.086;2023-02-28T05:16:34;6.60;;;2.10;;
68800;SDS011;55784;50.734;7.086;2023-02-28T05:19:00;8.37;;;1.83;;
68800;SDS011;55784;50.734;7.086;2023-02-28T05:21:27;6.50;;;1.85;;
68800;SDS011;55784;50.734;7.086;2023-02-28T05:23:55;7.70;;;2.13;;
68800;SDS011;55784;50.734;7.086;2023-02-28T05:26:22;5.65;;;1.80;;
68800;SDS011;55784;50.734;7.086;2023-02-28T05:28:48;6.85;;;2.03;;
68800;SDS011;55784;50.734;7.086;2023-02-28T05:31:13;7.00;;;2.00;;
68800;SDS011;55784;50.734;7.086;2023-02-28T05:33:40;7.82;;;2.08;;
68800;SDS011;55784;50.734;7.086;2023-02-28T05:36:06;6.87;;;1.90;;
68800;SDS011;55784;50.734;7.086;2023-02-28T05:38:31;6.65;;;1.92;;
68800;SDS011;55784;50.734;7.086;2023-02-28T05:40:57;7.33;;;2.40;;
68800;SDS011;55784;50.734;7.086;2023-02-28T05:43:22;8.63;;;2.20;;
68800;SDS011;55784;50.734;7.086;2023-02-28T05:45:48;7.22;;;2.25;;
68800;SDS011;55784;50.734;7.086;2023-02-28T05:48:13;7.13;;;2.10;;
68800;SDS011;55784;50.734;7.086;2023-02-28T05:50:39;7.53;;;2.30;;
68800;SDS011;55784;50.734;7.086;2023-02-28T05:53:05;10.10;;;2.00;;
68800;SDS011;55784;50.734;7.086;2023-02-28T05:55:33;8.47;;;2.20;;
68800;SDS011;55784;50.734;7.086;2023-02-28T05:58:03;8.38;;;2.50;;
68800;SDS011;55784;50.734;7.086;2023-02-28T06:00:29;7.18;;;2.40;;
68800;SDS011;55784;50.734;7.086;2023-02-28T06:02:56;7.43;;;2.20;;
68800;SDS011;55784;50.734;7.086;2023-02-28T06:05:24;7.43;;;2.20;;
68800;SDS011;55784;50.734;7.086;2023-02-28T06:07:50;8.30;;;2.40;;
68800;SDS011;55784;50.734;7.086;2023-02-28T06:10:15;7.77;;;2.30;;
68800;SDS011;55784;50.734;7.086;2023-02-28T06:12:41;8.47;;;2.50;;
68800;SDS011;55784;50.734;7.086;2023-02-28T06:15:07;8.83;;;2.20;;
68800;SDS011;55784;50.734;7.086;2023-02-28T06:17:36;8.60;;;2.33;;
68800;SDS011;55784;50.734;7.086;2023-02-28T06:20:01;8.30;;;2.13;;
68800;SDS011;55784;50.734;7.086;2023-02-28T06:22:27;7.07;;;2.28;;
68800;SDS011;55784;50.734;7.086;2023-02-28T06:25:12;7.93;;;2.40;;
68800;SDS011;55784;50.734;7.086;2023-02-28T06:28:17;6.10;;;1.75;;
68800;SDS011;55784;50.734;7.086;2023-02-28T06:30:42;7.20;;;2.20;;
68800;SDS011;55784;50.734;7.086;2023-02-28T06:33:07;12.07;;;3.70;;
68800;SDS011;55784;50.734;7.086;2023-02-28T06:35:33;10.10;;;2.50;;
68800;SDS011;55784;50.734;7.086;2023-02-28T06:37:58;7.53;;;2.30;;
68800;SDS011;55784;50.734;7.086;2023-02-28T06:40:24;8.40;;;2.45;;
68800;SDS011;55784;50.734;7.086;2023-02-28T06:42:49;8.50;;;2.70;;
68800;SDS011;55784;50.734;7.086;2023-02-28T06:45:18;7.53;;;2.40;;
68800;SDS011;55784;50.734;7.086;2023-02-28T06:51:08;7.25;;;2.13;;
68800;SDS011;55784;50.734;7.086;2023-02-28T06:53:47;7.77;;;2.50;;
68800;SDS011;55784;50.734;7.086;2023-02-28T06:56:18;7.97;;;2.50;;
68800;SDS011;55784;50.734;7.086;2023-02-28T06:59:00;7.20;;;2.28;;
68800;SDS011;55784;50.734;7.086;2023-02-28T07:01:49;7.38;;;2.15;;
68800;SDS011;55784;50.734;7.086;2023-02-28T07:04:14;6.53;;;2.20;;
68800;SDS011;55784;50.734;7.086;2023-02-28T07:06:42;8.57;;;2.67;;
68800;SDS011;55784;50.734;7.086;2023-02-28T07:09:10;7.95;;;2.25;;
68800;SDS011;55784;50.734;7.086;2023-02-28T07:11:39;8.00;;;2.45;;
68800;SDS011;55784;50.734;7.086;2023-02-28T07:14:08;8.82;;;2.83;;
68800;SDS011;55784;50.734;7.086;2023-02-28T07:16:35;7.65;;;2.40;;
68800;SDS011;55784;50.734;7.086;2023-02-28T07:19:04;9.07;;;2.60;;
68800;SDS011;55784;50.734;7.086;2023-02-28T07:21:39;8.67;;;2.70;;
68800;SDS011;55784;50.734;7.086;2023-02-28T07:24:05;8.05;;;2.60;;
68800;SDS011;55784;50.734;7.086;2023-02-28T07:26:31;7.33;;;2.60;;
68800;SDS011;55784;50.734;7.086;2023-02-28T07:28:59;8.48;;;2.97;;
68800;SDS011;55784;50.734;7.086;2023-02-28T07:31:24;10.07;;;2.80;;
68800;SDS011;55784;50.734;7.086;2023-02-28T07:33:50;8.10;;;2.40;;
68800;SDS011;55784;50.734;7.086;2023-02-28T07:36:16;8.95;;;2.88;;
68800;SDS011;55784;50.734;7.086;2023-02-28T07:38:45;8.37;;;2.70;;
68800;SDS011;55784;50.734;7.086;2023-02-28T07:41:18;8.35;;;2.55;;
68800;SDS011;55784;50.734;7.086;2023-02-28T07:43:48;8.32;;;2.58;;
68800;SDS011;55784;50.734;7.086;2023-02-28T07:46:14;9.18;;;2.40;;
68800;SDS011;55784;50.734;7.086;2023-02-28T07:48:40;9.77;;;3.10;;
68800;SDS011;55784;50.734;7.086;2023-02-28T07:51:06;8.20;;;2.78;;
68800;SDS011;55784;50.734;7.086;2023-02-28T07:53:32;9.70;;;3.03;;
68800;SDS011;55784;50.734;7.086;2023-02-28T07:55:58;9.20;;;2.75;;
68800;SDS011;55784;50.734;7.086;2023-02-28T07:58:26;8.60;;;3.10;;
68800;SDS011;55784;50.734;7.086;2023-02-28T08:00:55;10.10;;;3.25;;
68800;SDS011;55784;50.734;7.086;2023-02-28T08:03:25;8.93;;;2.50;;
68800;SDS011;55784;50.734;7.086;2023-02-28T08:05:50;9.45;;;2.47;;
68800;SDS011;55784;50.734;7.086;2023-02-28T08:08:17;9.60;;;2.72;;
68800;SDS011;55784;50.734;7.086;2023-02-28T08:10:43;10.40;;;2.80;;
68800;SDS011;55784;50.734;7.086;2023-02-28T08:13:08;7.57;;;2.77;;
68800;SDS011;55784;50.734;7.086;2023-02-28T08:15:42;8.87;;;2.60;;
68800;SDS011;55784;50.734;7.086;2023-02-28T08:18:20;7.35;;;2.40;;
68800;SDS011;55784;50.734;7.086;2023-02-28T08:21:10;9.18;;;2.65;;
68800;SDS011;55784;50.734;7.086;2023-02-28T08:23:36;8.57;;;2.50;;
68800;SDS011;55784;50.734;7.086;2023-02-28T08:26:04;7.87;;;2.20;;
68800;SDS011;55784;50.734;7.086;2023-02-28T08:28:33;7.75;;;2.15;;
68800;SDS011;55784;50.734;7.086;2023-02-28T08:30:59;7.47;;;2.40;;
68800;SDS011;55784;50.734;7.086;2023-02-28T08:33:27;6.50;;;1.87;;
68800;SDS011;55784;50.734;7.086;2023-02-28T08:36:22;6.72;;;2.03;;
68800;SDS011;55784;50.734;7.086;2023-02-28T08:42:13;7.10;;;2.10;;
68800;SDS011;55784;50.734;7.086;2023-02-28T08:44:55;7.07;;;2.55;;
68800;SDS011;55784;50.734;7.086;2023-02-28T08:50:02;7.35;;;2.00;;
68800;SDS011;55784;50.734;7.086;2023-02-28T08:52:54;7.83;;;2.20;;
68800;SDS011;55784;50.734;7.086;2023-02-28T08:55:28;7.80;;;2.13;;
68800;SDS011;55784;50.734;7.086;2023-02-28T08:58:22;8.48;;;2.70;;
68800;SDS011;55784;50.734;7.086;2023-02-28T09:00:47;6.55;;;2.00;;
68800;SDS011;55784;50.734;7.086;2023-02-28T09:03:16;6.32;;;1.98;;
68800;SDS011;55784;50.734;7.086;2023-02-28T09:05:56;7.67;;;2.10;;
68800;SDS011;55784;50.734;7.086;2023-02-28T09:08:25;7.70;;;2.10;;
68800;SDS011;55784;50.734;7.086;2023-02-28T09:10:53;6.28;;;1.88;;
68800;SDS011;55784;50.734;7.086;2023-02-28T09:13:25;7.00;;;2.08;;
68800;SDS011;55784;50.734;7.086;2023-02-28T09:16:02;7.55;;;2.00;;
68800;SDS011;55784;50.734;7.086;2023-02-28T09:18:33;6.90;;;1.70;;
68800;SDS011;55784;50.734;7.086;2023-02-28T09:21:06;5.82;;;1.60;;
68800;SDS011;55784;50.734;7.086;2023-02-28T09:23:43;7.55;;;1.60;;
68800;SDS011;55784;50.734;7.086;2023-02-28T09:26:14;7.25;;;1.77;;
68800;SDS011;55784;50.734;7.086;2023-02-28T09:29:05;5.60;;;1.60;;
68800;SDS011;55784;50.734;7.086;2023-02-28T09:37:52;5.72;;;1.42;;
68800;SDS011;55784;50.734;7.086;2023-02-28T09:40:18;6.07;;;1.50;;
68800;SDS011;55784;50.734;7.086;2023-02-28T09:42:46;6.27;;;1.90;;
68800;SDS011;55784;50.734;7.086;2023-02-28T09:45:32;6.45;;;1.70;;
68800;SDS011;55784;50.734;7.086;2023-02-28T09:50:45;8.75;;;1.90;;
68800;SDS011;55784;50.734;7.086;2023-02-28T09:53:28;6.07;;;1.63;;
68800;SDS011;55784;50.734;7.086;2023-02-28T10:03:56;6.53;;;1.88;;
68800;SDS011;55784;50.734;7.086;2023-02-28T10:06:29;6.82;;;2.30;;
68800;SDS011;55784;50.734;7.086;2023-02-28T10:12:29;5.60;;;1.63;;
68800;SDS011;55784;50.734;7.086;2023-02-28T10:46:50;6.63;;;1.48;;
68800;SDS011;55784;50.734;7.086;2023-02-28T10:49:26;6.90;;;1.50;;
68800;SDS011;55784;50.734;7.086;2023-02-28T10:51:56;7.37;;;1.70;;
68800;SDS011;55784;50.734;7.086;2023-02-28T10:54:42;5.88;;;1.50;;
68800;SDS011;55784;50.734;7.086;2023-02-28T10:57:21;5.80;;;1.48;;
68800;SDS011;55784;50.734;7.086;2023-02-28T11:00:15;7.90;;;1.80;;
68800;SDS011;55784;50.734;7.086;2023-02-28T11:02:41;6.63;;;1.67;;
68800;SDS011;55784;50.734;7.086;2023-02-28T11:05:54;6.07;;;1.73;;
68800;SDS011;55784;50.734;7.086;2023-02-28T11:07:58;6.80;;;1.75;;
68800;SDS011;55784;50.734;7.086;2023-02-28T11:10:30;5.50;;;1.65;;
68800;SDS011;55784;50.734;7.086;2023-02-28T11:12:59;11.20;;;1.70;;
68800;SDS011;55784;50.734;7.086;2023-02-28T11:15:33;6.38;;;1.75;;
68800;SDS011;55784;50.734;7.086;2023-02-28T11:18:06;7.40;;;1.53;;
68800;SDS011;55784;50.734;7.086;2023-02-28T11:21:23;6.07;;;1.70;;
68800;SDS011;55784;50.734;7.086;2023-02-28T11:33:13;8.20;;;1.80;;
68800;SDS011;55784;50.734;7.086;2023-02-28T11:36:22;6.28;;;1.80;;
68800;SDS011;55784;50.734;7.086;2023-02-28T11:38:51;6.53;;;1.70;;
68800;SDS011;55784;50.734;7.086;2023-02-28T11:50:45;7.00;;;1.70;;
68800;SDS011;55784;50.734;7.086;2023-02-28T12:02:19;10.77;;;2.90;;
68800;SDS011;55784;50.734;7.086;2023-02-28T12:10:25;20.48;;;6.15;;
68800;SDS011;55784;50.734;7.086;2023-02-28T12:16:38;6.87;;;2.10;;
68800;SDS011;55784;50.734;7.086;2023-02-28T12:28:37;6.57;;;1.80;;
68800;SDS011;55784;50.734;7.086;2023-02-28T12:31:26;8.57;;;2.70;;
68800;SDS011;55784;50.734;7.086;2023-02-28T12:33:58;12.82;;;3.08;;
68800;SDS011;55784;50.734;7.086;2023-02-28T12:36:30;6.78;;;2.10;;
68800;SDS011;55784;50.734;7.086;2023-02-28T12:42:24;8.70;;;3.00;;
68800;SDS011;55784;50.734;7.086;2023-02-28T12:44:56;7.70;;;2.60;;
68800;SDS011;55784;50.734;7.086;2023-02-28T12:47:25;7.03;;;1.77;;
68800;SDS011;55784;50.734;7.086;2023-02-28T12:49:52;5.87;;;1.93;;
68800;SDS011;55784;50.734;7.086;2023-02-28T12:52:45;6.40;;;1.73;;
68800;SDS011;55784;50.734;7.086;2023-02-28T13:00:36;7.25;;;2.00;;
68800;SDS011;55784;50.734;7.086;2023-02-28T13:03:13;6.97;;;2.10;;
68800;SDS011;55784;50.734;7.086;2023-02-28T13:06:18;5.80;;;1.85;;
68800;SDS011;55784;50.734;7.086;2023-02-28T13:09:09;5.70;;;1.70;;
68800;SDS011;55784;50.734;7.086;2023-02-28T13:14:18;7.28;;;2.08;;
68800;SDS011;55784;50.734;7.086;2023-02-28T13:33:24;6.35;;;2.00;;
68800;SDS011;55784;50.734;7.086;2023-02-28T13:38:47;6.90;;;2.28;;
68800;SDS011;55784;50.734;7.086;2023-02-28T13:44:11;9.80;;;3.07;;
68800;SDS011;55784;50.734;7.086;2023-02-28T13:49:18;46.00;;;15.73;;
68800;SDS011;55784;50.734;7.086;2023-02-28T13:51:49;24.23;;;7.95;;
68800;SDS011;55784;50.734;7.086;2023-02-28T13:57:31;28.07;;;10.37;;
68800;SDS011;55784;50.734;7.086;2023-02-28T14:00:52;9.43;;;3.10;;
68800;SDS011;55784;50.734;7.086;2023-02-28T14:16:37;12.40;;;4.13;;
68800;SDS011;55784;50.734;7.086;2023-02-28T14:19:14;13.98;;;5.10;;
68800;SDS011;55784;50.734;7.086;2023-02-28T14:22:21;12.25;;;4.05;;
68800;SDS011;55784;50.734;7.086;2023-02-28T14:28:13;7.75;;;2.47;;
68800;SDS011;55784;50.734;7.086;2023-02-28T14:33:23;10.87;;;3.57;;
68800;SDS011;55784;50.734;7.086;2023-02-28T14:36:10;7.93;;;2.47;;
68800;SDS011;55784;50.734;7.086;2023-02-28T14:44:19;7.63;;;2.70;;
68800;SDS011;55784;50.734;7.086;2023-02-28T14:46:48;7.67;;;2.70;;
68800;SDS011;55784;50.734;7.086;2023-02-28T14:51:47;7.95;;;2.65;;
68800;SDS011;55784;50.734;7.086;2023-02-28T14:54:15;7.85;;;2.40;;
68800;SDS011;55784;50.734;7.086;2023-02-28T14:56:48;7.25;;;2.55;;
68800;SDS011;55784;50.734;7.086;2023-02-28T14:59:23;7.37;;;2.57;;
68800;SDS011;55784;50.734;7.086;2023-02-28T15:01:51;7.43;;;2.55;;
68800;SDS011;55784;50.734;7.086;2023-02-28T15:04:25;6.33;;;2.20;;
68800;SDS011;55784;50.734;7.086;2023-02-28T15:09:38;6.80;;;2.50;;
68800;SDS011;55784;50.734;7.086;2023-02-28T15:12:04;7.03;;;2.40;;
68800;SDS011;55784;50.734;7.086;2023-02-28T15:14:30;7.90;;;2.60;;
68800;SDS011;55784;50.734;7.086;2023-02-28T15:16:57;8.40;;;2.60;;
68800;SDS011;55784;50.734;7.086;2023-02-28T15:19:27;7.35;;;2.53;;
68800;SDS011;55784;50.734;7.086;2023-02-28T15:22:05;8.20;;;2.97;;
68800;SDS011;55784;50.734;7.086;2023-02-28T15:24:37;8.35;;;2.70;;
68800;SDS011;55784;50.734;7.086;2023-02-28T15:27:07;7.97;;;3.10;;
68800;SDS011;55784;50.734;7.086;2023-02-28T15:29:46;8.07;;;2.80;;
68800;SDS011;55784;50.734;7.086;2023-02-28T15:32:26;8.18;;;3.22;;
68800;SDS011;55784;50.734;7.086;2023-02-28T15:34:53;7.50;;;2.90;;
68800;SDS011;55784;50.734;7.086;2023-02-28T15:39:58;12.15;;;3.33;;
68800;SDS011;55784;50.734;7.086;2023-02-28T15:43:22;8.00;;;2.70;;
68800;SDS011;55784;50.734;7.086;2023-02-28T15:46:06;9.27;;;3.30;;
68800;SDS011;55784;50.734;7.086;2023-02-28T15:48:51;9.05;;;2.90;;
68800;SDS011;55784;50.734;7.086;2023-02-28T15:51:32;7.82;;;2.70;;
68800;SDS011;55784;50.734;7.086;2023-02-28T15:54:00;8.57;;;2.83;;
68800;SDS011;55784;50.734;7.086;2023-02-28T15:56:31;9.80;;;3.47;;
68800;SDS011;55784;50.734;7.086;2023-02-28T15:59:05;8.48;;;2.90;;
68800;SDS011;55784;50.734;7.086;2023-02-28T16:01:33;8.70;;;2.70;;
68800;SDS011;55784;50.734;7.086;2023-02-28T16:04:10;9.25;;;3.13;;
68800;SDS011;55784;50.734;7.086;2023-02-28T16:06:45;9.68;;;3.20;;
68800;SDS011;55784;50.734;7.086;2023-02-28T16:09:31;7.83;;;2.83;;
68800;SDS011;55784;50.734;7.086;2023-02-28T16:11:59;7.97;;;3.10;;
68800;SDS011;55784;50.734;7.086;2023-02-28T16:14:30;8.57;;;2.87;;
68800;SDS011;55784;50.734;7.086;2023-02-28T16:16:57;7.15;;;2.53;;
68800;SDS011;55784;50.734;7.086;2023-02-28T16:19:31;8.52;;;2.72;;
68800;SDS011;55784;50.734;7.086;2023-02-28T16:21:57;7.80;;;2.90;;
68800;SDS011;55784;50.734;7.086;2023-02-28T16:24:23;8.27;;;2.88;;
68800;SDS011;55784;50.734;7.086;2023-02-28T16:26:49;8.05;;;2.90;;
68800;SDS011;55784;50.734;7.086;2023-02-28T16:29:24;10.38;;;3.10;;
68800;SDS011;55784;50.734;7.086;2023-02-28T16:31:54;11.07;;;2.93;;
68800;SDS011;55784;50.734;7.086;2023-02-28T16:37:26;8.15;;;2.88;;
68800;SDS011;55784;50.734;7.086;2023-02-28T16:40:01;7.63;;;2.42;;
68800;SDS011;55784;50.734;7.086;2023-02-28T16:42:40;9.80;;;3.08;;
68800;SDS011;55784;50.734;7.086;2023-02-28T16:45:16;8.20;;;2.83;;
68800;SDS011;55784;50.734;7.086;2023-02-28T16:47:44;10.50;;;3.60;;
68800;SDS011;55784;50.734;7.086;2023-02-28T16:50:14;9.35;;;3.08;;
68800;SDS011;55784;50.734;7.086;2023-02-28T16:52:41;13.17;;;4.10;;
68800;SDS011;55784;50.734;7.086;2023-02-28T16:55:07;11.35;;;4.20;;
68800;SDS011;55784;50.734;7.086;2023-02-28T16:57:57;15.20;;;5.65;;
68800;SDS011;55784;50.734;7.086;2023-02-28T17:00:38;13.83;;;4.67;;
68800;SDS011;55784;50.734;7.086;2023-02-28T17:03:28;22.17;;;7.35;;
68800;SDS011;55784;50.734;7.086;2023-02-28T17:06:06;8.93;;;3.22;;
68800;SDS011;55784;50.734;7.086;2023-02-28T17:08:49;18.42;;;5.43;;
68800;SDS011;55784;50.734;7.086;2023-02-28T17:11:29;18.20;;;6.53;;
68800;SDS011;55784;50.734;7.086;2023-02-28T17:13:55;8.60;;;3.00;;
68800;SDS011;55784;50.734;7.086;2023-02-28T17:16:39;9.83;;;3.63;;
68800;SDS011;55784;50.734;7.086;2023-02-28T17:19:35;11.02;;;4.00;;
68800;SDS011;55784;50.734;7.086;2023-02-28T17:22:09;13.27;;;4.63;;
68800;SDS011;55784;50.734;7.086;2023-02-28T17:25:30;8.85;;;2.90;;
68800;SDS011;55784;50.734;7.086;2023-02-28T17:27:55;7.67;;;2.77;;
68800;SDS011;55784;50.734;7.086;2023-02-28T17:30:22;9.07;;;3.03;;
68800;SDS011;55784;50.734;7.086;2023-02-28T17:32:49;10.17;;;3.40;;
68800;SDS011;55784;50.734;7.086;2023-02-28T17:35:15;8.73;;;2.95;;
68800;SDS011;55784;50.734;7.086;2023-02-28T17:37:43;13.13;;;4.10;;
68800;SDS011;55784;50.734;7.086;2023-02-28T17:40:15;8.50;;;3.15;;
68800;SDS011;55784;50.734;7.086;2023-02-28T17:42:44;13.23;;;4.25;;
68800;SDS011;55784;50.734;7.086;2023-02-28T17:45:10;12.25;;;3.90;;
68800;SDS011;55784;50.734;7.086;2023-02-28T17:47:36;8.98;;;3.55;;
68800;SDS011;55784;50.734;7.086;2023-02-28T17:50:02;13.17;;;4.90;;
68800;SDS011;55784;50.734;7.086;2023-02-28T17:52:28;17.73;;;6.50;;
68800;SDS011;55784;50.734;7.086;2023-02-28T17:54:54;11.55;;;3.90;;
68800;SDS011;55784;50.734;7.086;2023-02-28T17:57:19;9.67;;;3.77;;
68800;SDS011;55784;50.734;7.086;2023-02-28T17:59:45;10.23;;;3.83;;
68800;SDS011;55784;50.734;7.086;2023-02-28T18:02:11;13.48;;;4.38;;
68800;SDS011;55784;50.734;7.086;2023-02-28T18:04:37;10.00;;;3.87;;
68800;SDS011;55784;50.734;7.086;2023-02-28T18:07:05;13.52;;;4.22;;
68800;SDS011;55784;50.734;7.086;2023-02-28T18:09:31;12.40;;;4.53;;
68800;SDS011;55784;50.734;7.086;2023-02-28T18:11:56;12.63;;;4.53;;
68800;SDS011;55784;50.734;7.086;2023-02-28T18:14:28;12.13;;;4.22;;
68800;SDS011;55784;50.734;7.086;2023-02-28T18:16:54;13.57;;;4.32;;
68800;SDS011;55784;50.734;7.086;2023-02-28T18:19:30;13.37;;;4.50;;
68800;SDS011;55784;50.734;7.086;2023-02-28T18:25:34;31.85;;;11.68;;
68800;SDS011;55784;50.734;7.086;2023-02-28T20:07:48;15.68;;;5.10;;
68800;SDS011;55784;50.734;7.086;2023-02-28T20:43:57;15.83;;;5.67;;
68800;SDS011;55784;50.734;7.086;2023-02-28T20:46:26;18.05;;;7.25;;
68800;SDS011;55784;50.734;7.086;2023-02-28T20:48:54;15.63;;;6.10;;
68800;SDS011;55784;50.734;7.086;2023-02-28T20:51:21;17.98;;;6.63;;
68800;SDS011;55784;50.734;7.086;2023-02-28T20:53:47;17.60;;;7.03;;
68800;SDS011;55784;50.734;7.086;2023-02-28T20:56:16;19.48;;;7.40;;
68800;SDS011;55784;50.734;7.086;2023-02-28T20:58:44;16.38;;;7.45;;
68800;SDS011;55784;50.734;7.086;2023-02-28T21:01:18;21.60;;;6.97;;
68800;SDS011;55784;50.734;7.086;2023-02-28T21:06:31;21.10;;;7.75;;
68800;SDS011;55784;50.734;7.086;2023-02-28T21:08:58;19.67;;;7.53;;
68800;SDS011;55784;50.734;7.086;2023-02-28T21:11:25;16.97;;;7.23;;
68800;SDS011;55784;50.734;7.086;2023-02-28T21:13:53;19.20;;;7.57;;